sensor_id;sensor_type;location;lat;lon;timestamp;temperature;humidity
19803;DHT22;66074;50.764;6.090;2023-11-18T00:02:17;8.80;99.90
19803;DHT22;66074;50.764;6.090;2023-11-18T00:04:43;8.80;99.90
19803;DHT22;66074;50.764;6.090;2023-11-18T00:07:09;8.80;99.90
19803;DHT22;66074;50.764;6.090;2023-11-18T00:09:35;8.80;99.90
19803;DHT22;66074;50.764;6.090;2023-11-18T00:12:00;8.80;99.90
19803;DHT22;66074;50.764;6.090;2023-11-18T00:14:26;8.80;99.90
19803;DHT22;66074;50.764;6.090;2023-11-18T00:16:52;8.70;99.90
19803;DHT22;66074;50.764;6.090;2023-11-18T00:19:17;8.80;99.90
19803;DHT22;66074;50.764;6.090;2023-11-18T00:21:43;8.80;99.90
19803;DHT22;66074;50.764;6.090;2023-11-18T00:24:09;8.80;99.90
19803;DHT22;66074;50.764;6.090;2023-11-18T00:26:35;8.80;99.90
19803;DHT22;66074;50.764;6.090;2023-11-18T00:29:00;8.80;99.90
19803;DHT22;66074;50.764;6.090;2023-11-18T00:31:26;8.80;99.90
19803;DHT22;66074;50.764;6.090;2023-11-18T00:33:52;8.80;99.90
19803;DHT22;66074;50.764;6.090;2023-11-18T00:36:18;8.80;99.90
19803;DHT22;66074;50.764;6.090;2023-11-18T00:38:44;8.80;99.90
19803;DHT22;66074;50.764;6.090;2023-11-18T00:41:09;8.70;99.90
19803;DHT22;66074;50.764;6.090;2023-11-18T00:43:35;8.80;99.90
19803;DHT22;66074;50.764;6.090;2023-11-18T00:46:01;8.80;99.90
19803;DHT22;66074;50.764;6.090;2023-11-18T00:48:28;8.80;99.90
19803;DHT22;66074;50.764;6.090;2023-11-18T00:50:56;8.90;99.90
19803;DHT22;66074;50.764;6.090;2023-11-18T00:53:22;8.90;99.90
19803;DHT22;66074;50.764;6.090;2023-11-18T00:55:48;8.90;99.90
19803;DHT22;66074;50.764;6.090;2023-11-18T00:58:14;8.90;99.90
19803;DHT22;66074;50.764;6.090;2023-11-18T01:00:39;8.90;99.90
19803;DHT22;66074;50.764;6.090;2023-11-18T01:03:05;8.90;99.90
19803;DHT22;66074;50.764;6.090;2023-11-18T01:05:31;8.90;99.90
19803;DHT22;66074;50.764;6.090;2023-11-18T01:07:57;8.80;99.90
19803;DHT22;66074;50.764;6.090;2023-11-18T01:10:23;8.90;99.90
19803;DHT22;66074;50.764;6.090;2023-11-18T01:12:48;8.80;99.90
19803;DHT22;66074;50.764;6.090;2023-11-18T01:15:15;8.90;99.90
19803;DHT22;66074;50.764;6.090;2023-11-18T01:17:41;8.80;99.90
19803;DHT22;66074;50.764;6.090;2023-11-18T01:20:08;8.70;99.90
19803;DHT22;66074;50.764;6.090;2023-11-18T01:22:37;8.70;99.90
19803;DHT22;66074;50.764;6.090;2023-11-18T01:25:04;8.70;99.90
19803;DHT22;66074;50.764;6.090;2023-11-18T01:27:30;8.60;99.90
19803;DHT22;66074;50.764;6.090;2023-11-18T01:29:56;8.60;99.90
19803;DHT22;66074;50.764;6.090;2023-11-18T01:32:21;8.60;99.90
19803;DHT22;66074;50.764;6.090;2023-11-18T01:34:47;8.60;99.90
19803;DHT22;66074;50.764;6.090;2023-11-18T01:37:19;8.70;99.90
19803;DHT22;66074;50.764;6.090;2023-11-18T01:39:46;8.70;99.90
19803;DHT22;66074;50.764;6.090;2023-11-18T01:42:12;8.70;99.90
19803;DHT22;66074;50.764;6.090;2023-11-18T01:44:38;8.70;99.90
19803;DHT22;66074;50.764;6.090;2023-11-18T01:47:04;8.70;99.90
19803;DHT22;66074;50.764;6.090;2023-11-18T01:49:32;8.70;99.90
19803;DHT22;66074;50.764;6.090;2023-11-18T01:52:02;8.70;99.90
19803;DHT22;66074;50.764;6.090;2023-11-18T01:54:28;8.70;99.90
19803;DHT22;66074;50.764;6.090;2023-11-18T01:56:54;8.80;99.90
19803;DHT22;66074;50.764;6.090;2023-11-18T01:59:20;8.70;99.90
19803;DHT22;66074;50.764;6.090;2023-11-18T02:01:48;8.80;99.90
19803;DHT22;66074;50.764;6.090;2023-11-18T02:04:15;8.80;99.90
19803;DHT22;66074;50.764;6.090;2023-11-18T02:06:42;8.80;99.90
19803;DHT22;66074;50.764;6.090;2023-11-18T02:09:11;8.70;99.90
19803;DHT22;66074;50.764;6.090;2023-11-18T02:11:43;8.70;99.90
19803;DHT22;66074;50.764;6.090;2023-11-18T02:14:14;8.70;99.90
19803;DHT22;66074;50.764;6.090;2023-11-18T02:16:43;8.80;99.90
19803;DHT22;66074;50.764;6.090;2023-11-18T02:19:20;8.80;99.90
19803;DHT22;66074;50.764;6.090;2023-11-18T02:21:47;8.70;99.90
19803;DHT22;66074;50.764;6.090;2023-11-18T02:24:32;8.80;99.90
19803;DHT22;66074;50.764;6.090;2023-11-18T02:27:06;8.80;99.90
19803;DHT22;66074;50.764;6.090;2023-11-18T02:29:35;8.80;99.90
19803;DHT22;66074;50.764;6.090;2023-11-18T02:32:25;8.70;99.90
19803;DHT22;66074;50.764;6.090;2023-11-18T02:35:23;8.70;99.90
19803;DHT22;66074;50.764;6.090;2023-11-18T02:37:52;8.70;99.90
19803;DHT22;66074;50.764;6.090;2023-11-18T02:40:26;8.70;99.90
19803;DHT22;66074;50.764;6.090;2023-11-18T02:42:55;8.70;99.90
19803;DHT22;66074;50.764;6.090;2023-11-18T02:45:23;8.70;99.90
19803;DHT22;66074;50.764;6.090;2023-11-18T02:47:49;8.60;99.90
19803;DHT22;66074;50.764;6.090;2023-11-18T02:50:14;8.60;99.90
19803;DHT22;66074;50.764;6.090;2023-11-18T02:52:41;8.60;99.90
19803;DHT22;66074;50.764;6.090;2023-11-18T02:55:07;8.50;99.90
19803;DHT22;66074;50.764;6.090;2023-11-18T02:57:37;8.50;99.90
19803;DHT22;66074;50.764;6.090;2023-11-18T03:00:07;8.50;99.90
19803;DHT22;66074;50.764;6.090;2023-11-18T03:02:49;8.50;99.90
19803;DHT22;66074;50.764;6.090;2023-11-18T03:05:15;8.50;99.90
19803;DHT22;66074;50.764;6.090;2023-11-18T03:07:41;8.50;99.90
19803;DHT22;66074;50.764;6.090;2023-11-18T03:10:07;8.50;99.90
19803;DHT22;66074;50.764;6.090;2023-11-18T03:12:40;8.50;99.90
19803;DHT22;66074;50.764;6.090;2023-11-18T03:15:06;8.50;99.90
19803;DHT22;66074;50.764;6.090;2023-11-18T03:17:34;8.50;99.90
19803;DHT22;66074;50.764;6.090;2023-11-18T03:20:00;8.50;99.90
19803;DHT22;66074;50.764;6.090;2023-11-18T03:22:26;8.50;99.90
19803;DHT22;66074;50.764;6.090;2023-11-18T03:24:51;8.50;99.90
19803;DHT22;66074;50.764;6.090;2023-11-18T03:27:17;8.50;99.90
19803;DHT22;66074;50.764;6.090;2023-11-18T03:29:43;8.60;99.90
19803;DHT22;66074;50.764;6.090;2023-11-18T03:32:11;8.50;99.90
19803;DHT22;66074;50.764;6.090;2023-11-18T03:34:38;8.50;99.90
19803;DHT22;66074;50.764;6.090;2023-11-18T03:37:03;8.60;99.90
19803;DHT22;66074;50.764;6.090;2023-11-18T03:39:29;8.50;99.90
19803;DHT22;66074;50.764;6.090;2023-11-18T03:41:56;8.50;99.90
19803;DHT22;66074;50.764;6.090;2023-11-18T03:44:23;8.50;99.90
19803;DHT22;66074;50.764;6.090;2023-11-18T03:46:49;8.50;99.90
19803;DHT22;66074;50.764;6.090;2023-11-18T03:49:15;8.50;99.90
19803;DHT22;66074;50.764;6.090;2023-11-18T03:51:41;8.60;99.90
19803;DHT22;66074;50.764;6.090;2023-11-18T03:54:06;8.50;99.90
19803;DHT22;66074;50.764;6.090;2023-11-18T03:56:34;8.60;99.90
19803;DHT22;66074;50.764;6.090;2023-11-18T03:59:00;8.60;99.90
19803;DHT22;66074;50.764;6.090;2023-11-18T04:01:26;8.60;99.90
19803;DHT22;66074;50.764;6.090;2023-11-18T04:03:53;8.60;99.90
19803;DHT22;66074;50.764;6.090;2023-11-18T04:06:20;8.60;99.90
19803;DHT22;66074;50.764;6.090;2023-11-18T04:08:47;8.60;99.90
19803;DHT22;66074;50.764;6.090;2023-11-18T04:11:14;8.60;99.90
19803;DHT22;66074;50.764;6.090;2023-11-18T04:13:43;8.60;99.90
19803;DHT22;66074;50.764;6.090;2023-11-18T04:16:16;8.70;99.90
19803;DHT22;66074;50.764;6.090;2023-11-18T04:18:42;8.60;99.90
19803;DHT22;66074;50.764;6.090;2023-11-18T04:21:09;8.60;99.90
19803;DHT22;66074;50.764;6.090;2023-11-18T04:23:39;8.70;99.90
19803;DHT22;66074;50.764;6.090;2023-11-18T04:26:06;8.60;99.90
19803;DHT22;66074;50.764;6.090;2023-11-18T04:28:33;8.60;99.90
19803;DHT22;66074;50.764;6.090;2023-11-18T04:30:59;8.50;99.90
19803;DHT22;66074;50.764;6.090;2023-11-18T04:33:25;8.60;99.90
19803;DHT22;66074;50.764;6.090;2023-11-18T04:35:51;8.50;99.90
19803;DHT22;66074;50.764;6.090;2023-11-18T04:38:17;8.50;99.90
19803;DHT22;66074;50.764;6.090;2023-11-18T04:40:44;8.60;99.90
19803;DHT22;66074;50.764;6.090;2023-11-18T04:43:11;8.60;99.90
19803;DHT22;66074;50.764;6.090;2023-11-18T04:45:37;8.60;99.90
19803;DHT22;66074;50.764;6.090;2023-11-18T04:48:04;8.60;99.90
19803;DHT22;66074;50.764;6.090;2023-11-18T04:50:30;8.60;99.90
19803;DHT22;66074;50.764;6.090;2023-11-18T04:52:57;8.60;99.90
19803;DHT22;66074;50.764;6.090;2023-11-18T04:55:23;8.60;99.90
19803;DHT22;66074;50.764;6.090;2023-11-18T04:57:49;8.70;99.90
19803;DHT22;66074;50.764;6.090;2023-11-18T05:00:14;8.70;99.90
19803;DHT22;66074;50.764;6.090;2023-11-18T05:02:43;8.60;99.90
19803;DHT22;66074;50.764;6.090;2023-11-18T05:05:13;8.70;99.90
19803;DHT22;66074;50.764;6.090;2023-11-18T05:07:42;8.60;99.90
19803;DHT22;66074;50.764;6.090;2023-11-18T05:10:09;8.60;99.90
19803;DHT22;66074;50.764;6.090;2023-11-18T05:12:38;8.60;99.90
19803;DHT22;66074;50.764;6.090;2023-11-18T05:15:06;8.70;99.90
19803;DHT22;66074;50.764;6.090;2023-11-18T05:17:33;8.70;99.90
19803;DHT22;66074;50.764;6.090;2023-11-18T05:20:02;8.70;99.90
19803;DHT22;66074;50.764;6.090;2023-11-18T05:22:28;8.70;99.90
19803;DHT22;66074;50.764;6.090;2023-11-18T05:24:53;8.70;99.90
19803;DHT22;66074;50.764;6.090;2023-11-18T05:27:19;8.70;99.80
19803;DHT22;66074;50.764;6.090;2023-11-18T05:29:44;8.70;99.80
19803;DHT22;66074;50.764;6.090;2023-11-18T05:32:20;8.70;99.80
19803;DHT22;66074;50.764;6.090;2023-11-18T05:34:46;8.80;99.60
19803;DHT22;66074;50.764;6.090;2023-11-18T05:37:12;8.80;99.60
19803;DHT22;66074;50.764;6.090;2023-11-18T05:39:37;8.80;99.60
19803;DHT22;66074;50.764;6.090;2023-11-18T05:42:09;8.80;99.70
19803;DHT22;66074;50.764;6.090;2023-11-18T05:44:36;8.80;99.80
19803;DHT22;66074;50.764;6.090;2023-11-18T05:47:04;8.80;99.70
19803;DHT22;66074;50.764;6.090;2023-11-18T05:49:29;8.80;99.70
19803;DHT22;66074;50.764;6.090;2023-11-18T05:51:55;8.80;99.80
19803;DHT22;66074;50.764;6.090;2023-11-18T05:54:21;8.80;99.80
19803;DHT22;66074;50.764;6.090;2023-11-18T05:56:47;8.80;99.80
19803;DHT22;66074;50.764;6.090;2023-11-18T05:59:12;8.80;99.80
19803;DHT22;66074;50.764;6.090;2023-11-18T06:01:40;8.80;99.80
19803;DHT22;66074;50.764;6.090;2023-11-18T06:04:06;8.80;99.80
19803;DHT22;66074;50.764;6.090;2023-11-18T06:06:34;8.90;99.80
19803;DHT22;66074;50.764;6.090;2023-11-18T06:08:59;8.80;99.80
19803;DHT22;66074;50.764;6.090;2023-11-18T06:11:30;8.90;99.80
19803;DHT22;66074;50.764;6.090;2023-11-18T06:13:57;8.90;99.60
19803;DHT22;66074;50.764;6.090;2023-11-18T06:16:24;8.90;99.70
19803;DHT22;66074;50.764;6.090;2023-11-18T06:18:51;8.90;99.60
19803;DHT22;66074;50.764;6.090;2023-11-18T06:21:22;8.90;99.50
19803;DHT22;66074;50.764;6.090;2023-11-18T06:23:53;8.90;99.60
19803;DHT22;66074;50.764;6.090;2023-11-18T06:26:20;8.90;99.60
19803;DHT22;66074;50.764;6.090;2023-11-18T06:28:47;8.90;99.60
19803;DHT22;66074;50.764;6.090;2023-11-18T06:31:14;8.90;99.50
19803;DHT22;66074;50.764;6.090;2023-11-18T06:33:45;8.90;99.80
19803;DHT22;66074;50.764;6.090;2023-11-18T06:38:39;9.00;99.60
19803;DHT22;66074;50.764;6.090;2023-11-18T06:41:06;8.90;99.60
19803;DHT22;66074;50.764;6.090;2023-11-18T06:43:36;9.00;99.70
19803;DHT22;66074;50.764;6.090;2023-11-18T06:48:54;9.00;99.80
19803;DHT22;66074;50.764;6.090;2023-11-18T06:51:23;9.00;99.60
19803;DHT22;66074;50.764;6.090;2023-11-18T06:53:56;9.00;99.70
19803;DHT22;66074;50.764;6.090;2023-11-18T06:56:26;9.00;99.70
19803;DHT22;66074;50.764;6.090;2023-11-18T06:58:52;9.00;99.70
19803;DHT22;66074;50.764;6.090;2023-11-18T07:01:17;9.00;99.50
19803;DHT22;66074;50.764;6.090;2023-11-18T07:03:48;9.00;99.70
19803;DHT22;66074;50.764;6.090;2023-11-18T07:06:18;9.00;99.70
19803;DHT22;66074;50.764;6.090;2023-11-18T07:08:52;9.00;99.70
19803;DHT22;66074;50.764;6.090;2023-11-18T07:11:20;9.00;99.60
19803;DHT22;66074;50.764;6.090;2023-11-18T07:13:47;9.00;99.90
19803;DHT22;66074;50.764;6.090;2023-11-18T07:16:14;9.10;99.70
19803;DHT22;66074;50.764;6.090;2023-11-18T07:18:40;9.10;99.70
19803;DHT22;66074;50.764;6.090;2023-11-18T07:21:07;9.10;99.70
19803;DHT22;66074;50.764;6.090;2023-11-18T07:23:34;9.20;99.70
19803;DHT22;66074;50.764;6.090;2023-11-18T07:26:00;9.20;99.80
19803;DHT22;66074;50.764;6.090;2023-11-18T07:28:26;9.20;99.70
19803;DHT22;66074;50.764;6.090;2023-11-18T07:30:53;9.20;99.80
19803;DHT22;66074;50.764;6.090;2023-11-18T07:33:19;9.30;99.90
19803;DHT22;66074;50.764;6.090;2023-11-18T07:35:46;9.30;99.80
19803;DHT22;66074;50.764;6.090;2023-11-18T07:38:14;9.30;99.90
19803;DHT22;66074;50.764;6.090;2023-11-18T07:40:39;9.40;99.90
19803;DHT22;66074;50.764;6.090;2023-11-18T07:43:14;9.40;99.90
19803;DHT22;66074;50.764;6.090;2023-11-18T07:45:40;9.40;99.90
19803;DHT22;66074;50.764;6.090;2023-11-18T07:48:08;9.40;99.90
19803;DHT22;66074;50.764;6.090;2023-11-18T07:50:39;9.40;99.90
19803;DHT22;66074;50.764;6.090;2023-11-18T07:53:10;9.40;99.80
19803;DHT22;66074;50.764;6.090;2023-11-18T07:55:36;9.50;99.90
19803;DHT22;66074;50.764;6.090;2023-11-18T07:58:11;9.40;99.90
19803;DHT22;66074;50.764;6.090;2023-11-18T08:00:38;9.40;99.90
19803;DHT22;66074;50.764;6.090;2023-11-18T08:03:07;9.50;99.90
19803;DHT22;66074;50.764;6.090;2023-11-18T08:05:37;9.50;99.90
19803;DHT22;66074;50.764;6.090;2023-11-18T08:08:08;9.60;99.80
19803;DHT22;66074;50.764;6.090;2023-11-18T08:10:37;9.60;99.80
19803;DHT22;66074;50.764;6.090;2023-11-18T08:13:04;9.50;99.70
19803;DHT22;66074;50.764;6.090;2023-11-18T08:15:32;9.50;99.70
19803;DHT22;66074;50.764;6.090;2023-11-18T08:17:57;9.50;99.70
19803;DHT22;66074;50.764;6.090;2023-11-18T08:20:23;9.60;99.80
19803;DHT22;66074;50.764;6.090;2023-11-18T08:22:51;9.60;99.70
19803;DHT22;66074;50.764;6.090;2023-11-18T08:25:17;9.60;99.70
19803;DHT22;66074;50.764;6.090;2023-11-18T08:27:43;9.60;99.70
19803;DHT22;66074;50.764;6.090;2023-11-18T08:30:11;9.60;99.70
19803;DHT22;66074;50.764;6.090;2023-11-18T08:32:38;9.60;99.70
19803;DHT22;66074;50.764;6.090;2023-11-18T08:35:07;9.60;99.80
19803;DHT22;66074;50.764;6.090;2023-11-18T08:37:34;9.60;99.80
19803;DHT22;66074;50.764;6.090;2023-11-18T08:40:03;9.60;99.90
19803;DHT22;66074;50.764;6.090;2023-11-18T08:42:32;9.60;99.90
19803;DHT22;66074;50.764;6.090;2023-11-18T08:44:59;9.60;99.80
19803;DHT22;66074;50.764;6.090;2023-11-18T08:47:26;9.70;99.90
19803;DHT22;66074;50.764;6.090;2023-11-18T08:49:52;9.70;99.90
19803;DHT22;66074;50.764;6.090;2023-11-18T08:52:18;9.70;99.90
19803;DHT22;66074;50.764;6.090;2023-11-18T08:54:44;9.70;99.90
19803;DHT22;66074;50.764;6.090;2023-11-18T08:57:28;9.70;99.90
19803;DHT22;66074;50.764;6.090;2023-11-18T09:00:14;9.70;99.90
19803;DHT22;66074;50.764;6.090;2023-11-18T09:03:01;9.70;99.90
19803;DHT22;66074;50.764;6.090;2023-11-18T09:05:27;9.80;99.90
19803;DHT22;66074;50.764;6.090;2023-11-18T09:08:01;9.80;99.90
19803;DHT22;66074;50.764;6.090;2023-11-18T09:10:27;9.80;99.90
19803;DHT22;66074;50.764;6.090;2023-11-18T09:12:56;9.80;99.90
19803;DHT22;66074;50.764;6.090;2023-11-18T09:15:21;9.80;99.90
19803;DHT22;66074;50.764;6.090;2023-11-18T09:17:51;9.90;99.90
19803;DHT22;66074;50.764;6.090;2023-11-18T09:20:18;9.90;99.90
19803;DHT22;66074;50.764;6.090;2023-11-18T09:22:48;9.90;99.90
19803;DHT22;66074;50.764;6.090;2023-11-18T09:25:14;9.90;99.90
19803;DHT22;66074;50.764;6.090;2023-11-18T09:27:41;9.90;99.90
19803;DHT22;66074;50.764;6.090;2023-11-18T09:30:07;9.90;99.90
19803;DHT22;66074;50.764;6.090;2023-11-18T09:32:42;9.90;99.90
19803;DHT22;66074;50.764;6.090;2023-11-18T09:35:08;9.90;99.90
19803;DHT22;66074;50.764;6.090;2023-11-18T09:37:39;10.00;99.60
19803;DHT22;66074;50.764;6.090;2023-11-18T09:40:17;10.00;99.60
19803;DHT22;66074;50.764;6.090;2023-11-18T09:42:43;10.00;99.70
19803;DHT22;66074;50.764;6.090;2023-11-18T09:45:10;10.10;99.70
19803;DHT22;66074;50.764;6.090;2023-11-18T09:47:46;10.10;99.60
19803;DHT22;66074;50.764;6.090;2023-11-18T09:50:20;10.20;99.70
19803;DHT22;66074;50.764;6.090;2023-11-18T09:52:49;10.20;99.80
19803;DHT22;66074;50.764;6.090;2023-11-18T09:55:51;10.10;99.70
19803;DHT22;66074;50.764;6.090;2023-11-18T09:58:21;10.10;99.70
19803;DHT22;66074;50.764;6.090;2023-11-18T10:00:50;10.10;99.80
19803;DHT22;66074;50.764;6.090;2023-11-18T10:03:21;10.20;99.90
19803;DHT22;66074;50.764;6.090;2023-11-18T10:05:49;10.30;99.90
19803;DHT22;66074;50.764;6.090;2023-11-18T10:08:18;10.30;99.90
19803;DHT22;66074;50.764;6.090;2023-11-18T10:10:51;10.40;99.90
19803;DHT22;66074;50.764;6.090;2023-11-18T10:13:17;10.30;99.90
19803;DHT22;66074;50.764;6.090;2023-11-18T10:15:49;10.20;99.90
19803;DHT22;66074;50.764;6.090;2023-11-18T10:18:18;10.20;99.90
19803;DHT22;66074;50.764;6.090;2023-11-18T10:20:50;10.20;99.90
19803;DHT22;66074;50.764;6.090;2023-11-18T10:23:21;10.10;99.90
19803;DHT22;66074;50.764;6.090;2023-11-18T10:25:56;10.10;99.90
19803;DHT22;66074;50.764;6.090;2023-11-18T10:30:55;10.10;99.90
19803;DHT22;66074;50.764;6.090;2023-11-18T10:33:26;10.10;99.90
19803;DHT22;66074;50.764;6.090;2023-11-18T10:35:56;10.10;99.90
19803;DHT22;66074;50.764;6.090;2023-11-18T10:38:22;10.10;99.90
19803;DHT22;66074;50.764;6.090;2023-11-18T10:40:54;10.10;99.90
19803;DHT22;66074;50.764;6.090;2023-11-18T10:43:23;10.10;99.90
19803;DHT22;66074;50.764;6.090;2023-11-18T10:46:13;10.10;99.90
19803;DHT22;66074;50.764;6.090;2023-11-18T10:48:44;10.10;99.90
19803;DHT22;66074;50.764;6.090;2023-11-18T10:51:16;10.10;99.90
19803;DHT22;66074;50.764;6.090;2023-11-18T10:53:47;10.10;99.90
19803;DHT22;66074;50.764;6.090;2023-11-18T10:56:22;10.20;99.90
19803;DHT22;66074;50.764;6.090;2023-11-18T10:58:59;10.20;99.90
19803;DHT22;66074;50.764;6.090;2023-11-18T11:01:36;10.20;99.90
19803;DHT22;66074;50.764;6.090;2023-11-18T11:04:17;10.20;99.90
19803;DHT22;66074;50.764;6.090;2023-11-18T11:06:49;10.30;99.90
19803;DHT22;66074;50.764;6.090;2023-11-18T11:09:19;10.40;99.90
19803;DHT22;66074;50.764;6.090;2023-11-18T11:11:54;10.50;99.90
19803;DHT22;66074;50.764;6.090;2023-11-18T11:14:22;10.40;99.70
19803;DHT22;66074;50.764;6.090;2023-11-18T11:17:05;10.40;99.70
19803;DHT22;66074;50.764;6.090;2023-11-18T11:19:50;10.40;99.70
19803;DHT22;66074;50.764;6.090;2023-11-18T11:22:32;10.40;99.70
19803;DHT22;66074;50.764;6.090;2023-11-18T11:25:21;10.40;99.80
19803;DHT22;66074;50.764;6.090;2023-11-18T11:27:59;10.40;99.70
19803;DHT22;66074;50.764;6.090;2023-11-18T11:30:29;10.50;99.70
19803;DHT22;66074;50.764;6.090;2023-11-18T11:35:55;10.50;99.40
19803;DHT22;66074;50.764;6.090;2023-11-18T11:38:23;10.50;99.60
19803;DHT22;66074;50.764;6.090;2023-11-18T11:40:50;10.50;99.60
19803;DHT22;66074;50.764;6.090;2023-11-18T11:43:18;10.50;99.40
19803;DHT22;66074;50.764;6.090;2023-11-18T11:45:50;10.50;99.50
19803;DHT22;66074;50.764;6.090;2023-11-18T11:48:17;10.50;99.30
19803;DHT22;66074;50.764;6.090;2023-11-18T11:54:26;10.50;99.40
19803;DHT22;66074;50.764;6.090;2023-11-18T11:56:56;10.50;99.30
19803;DHT22;66074;50.764;6.090;2023-11-18T12:02:15;10.40;99.20
19803;DHT22;66074;50.764;6.090;2023-11-18T12:04:51;10.50;99.30
19803;DHT22;66074;50.764;6.090;2023-11-18T12:07:21;10.60;99.30
19803;DHT22;66074;50.764;6.090;2023-11-18T12:09:49;10.60;99.30
19803;DHT22;66074;50.764;6.090;2023-11-18T12:12:21;10.60;99.20
19803;DHT22;66074;50.764;6.090;2023-11-18T12:14:50;10.60;99.30
19803;DHT22;66074;50.764;6.090;2023-11-18T12:17:18;10.60;99.20
19803;DHT22;66074;50.764;6.090;2023-11-18T12:19:47;10.60;99.30
19803;DHT22;66074;50.764;6.090;2023-11-18T12:22:14;10.60;99.40
19803;DHT22;66074;50.764;6.090;2023-11-18T12:40:55;10.50;99.90
19803;DHT22;66074;50.764;6.090;2023-11-18T12:46:47;10.50;99.90
19803;DHT22;66074;50.764;6.090;2023-11-18T12:49:16;10.50;99.90
19803;DHT22;66074;50.764;6.090;2023-11-18T12:51:45;10.50;99.90
19803;DHT22;66074;50.764;6.090;2023-11-18T12:54:11;10.40;99.90
19803;DHT22;66074;50.764;6.090;2023-11-18T12:56:40;10.30;99.90
19803;DHT22;66074;50.764;6.090;2023-11-18T12:59:10;10.40;99.90
19803;DHT22;66074;50.764;6.090;2023-11-18T13:01:38;10.50;99.90
19803;DHT22;66074;50.764;6.090;2023-11-18T13:04:05;10.40;99.90
19803;DHT22;66074;50.764;6.090;2023-11-18T13:06:31;10.40;99.90
19803;DHT22;66074;50.764;6.090;2023-11-18T13:08:56;10.50;99.90
19803;DHT22;66074;50.764;6.090;2023-11-18T13:11:23;10.40;99.90
19803;DHT22;66074;50.764;6.090;2023-11-18T13:13:52;10.50;99.90
19803;DHT22;66074;50.764;6.090;2023-11-18T13:16:19;10.40;99.90
19803;DHT22;66074;50.764;6.090;2023-11-18T13:18:47;10.40;99.90
19803;DHT22;66074;50.764;6.090;2023-11-18T13:21:18;10.40;99.90
19803;DHT22;66074;50.764;6.090;2023-11-18T13:23:48;10.40;99.90
19803;DHT22;66074;50.764;6.090;2023-11-18T13:26:17;10.30;99.90
19803;DHT22;66074;50.764;6.090;2023-11-18T13:28:47;10.30;99.90
19803;DHT22;66074;50.764;6.090;2023-11-18T13:31:14;10.30;99.90
19803;DHT22;66074;50.764;6.090;2023-11-18T13:33:47;10.30;99.90
19803;DHT22;66074;50.764;6.090;2023-11-18T13:36:14;10.30;99.90
19803;DHT22;66074;50.764;6.090;2023-11-18T13:38:41;10.40;99.90
19803;DHT22;66074;50.764;6.090;2023-11-18T13:41:09;10.30;99.90
19803;DHT22;66074;50.764;6.090;2023-11-18T13:43:45;10.40;99.90
19803;DHT22;66074;50.764;6.090;2023-11-18T13:46:18;10.50;99.90
19803;DHT22;66074;50.764;6.090;2023-11-18T13:48:51;10.60;99.90
19803;DHT22;66074;50.764;6.090;2023-11-18T13:51:19;10.60;99.90
19803;DHT22;66074;50.764;6.090;2023-11-18T13:53:45;10.60;99.90
19803;DHT22;66074;50.764;6.090;2023-11-18T13:56:12;10.60;99.90
19803;DHT22;66074;50.764;6.090;2023-11-18T13:58:38;10.60;99.90
19803;DHT22;66074;50.764;6.090;2023-11-18T14:01:08;10.60;99.90
19803;DHT22;66074;50.764;6.090;2023-11-18T14:03:37;10.50;99.90
19803;DHT22;66074;50.764;6.090;2023-11-18T14:06:06;10.50;99.90
19803;DHT22;66074;50.764;6.090;2023-11-18T14:08:32;10.50;99.90
19803;DHT22;66074;50.764;6.090;2023-11-18T14:11:00;10.50;99.90
19803;DHT22;66074;50.764;6.090;2023-11-18T14:13:26;10.50;99.90
19803;DHT22;66074;50.764;6.090;2023-11-18T14:15:59;10.40;99.90
19803;DHT22;66074;50.764;6.090;2023-11-18T14:18:25;10.40;99.90
19803;DHT22;66074;50.764;6.090;2023-11-18T14:20:52;10.30;99.90
19803;DHT22;66074;50.764;6.090;2023-11-18T14:23:17;10.30;99.90
19803;DHT22;66074;50.764;6.090;2023-11-18T14:25:44;10.30;99.90
19803;DHT22;66074;50.764;6.090;2023-11-18T14:28:11;10.30;99.90
19803;DHT22;66074;50.764;6.090;2023-11-18T14:30:38;10.20;99.90
19803;DHT22;66074;50.764;6.090;2023-11-18T14:33:03;10.20;99.90
19803;DHT22;66074;50.764;6.090;2023-11-18T14:35:29;10.20;99.90
19803;DHT22;66074;50.764;6.090;2023-11-18T14:37:55;10.20;99.90
19803;DHT22;66074;50.764;6.090;2023-11-18T14:40:21;10.20;99.90
19803;DHT22;66074;50.764;6.090;2023-11-18T14:42:49;10.20;99.90
19803;DHT22;66074;50.764;6.090;2023-11-18T14:45:16;10.20;99.90
19803;DHT22;66074;50.764;6.090;2023-11-18T14:47:43;10.20;99.90
19803;DHT22;66074;50.764;6.090;2023-11-18T14:50:11;10.20;99.90
19803;DHT22;66074;50.764;6.090;2023-11-18T14:52:50;10.20;99.90
19803;DHT22;66074;50.764;6.090;2023-11-18T14:55:17;10.20;99.90
19803;DHT22;66074;50.764;6.090;2023-11-18T14:57:44;10.20;99.90
19803;DHT22;66074;50.764;6.090;2023-11-18T15:00:11;10.20;99.90
19803;DHT22;66074;50.764;6.090;2023-11-18T15:02:57;10.20;99.90
19803;DHT22;66074;50.764;6.090;2023-11-18T15:05:23;10.30;99.90
19803;DHT22;66074;50.764;6.090;2023-11-18T15:07:53;10.40;99.90
19803;DHT22;66074;50.764;6.090;2023-11-18T15:10:24;10.40;99.90
19803;DHT22;66074;50.764;6.090;2023-11-18T15:12:54;10.40;99.90
19803;DHT22;66074;50.764;6.090;2023-11-18T15:15:24;10.40;99.90
19803;DHT22;66074;50.764;6.090;2023-11-18T15:18:01;10.40;99.90
19803;DHT22;66074;50.764;6.090;2023-11-18T15:20:40;10.30;99.90
19803;DHT22;66074;50.764;6.090;2023-11-18T15:23:09;10.30;99.90
19803;DHT22;66074;50.764;6.090;2023-11-18T15:25:35;10.30;99.90
19803;DHT22;66074;50.764;6.090;2023-11-18T15:28:01;10.30;99.90
19803;DHT22;66074;50.764;6.090;2023-11-18T15:30:27;10.30;99.90
19803;DHT22;66074;50.764;6.090;2023-11-18T15:32:55;10.30;99.90
19803;DHT22;66074;50.764;6.090;2023-11-18T15:35:22;10.20;99.90
19803;DHT22;66074;50.764;6.090;2023-11-18T15:37:49;10.30;99.90
19803;DHT22;66074;50.764;6.090;2023-11-18T15:40:16;10.30;99.90
19803;DHT22;66074;50.764;6.090;2023-11-18T15:42:47;10.30;99.90
19803;DHT22;66074;50.764;6.090;2023-11-18T15:45:22;10.30;99.90
19803;DHT22;66074;50.764;6.090;2023-11-18T15:47:52;10.30;99.90
19803;DHT22;66074;50.764;6.090;2023-11-18T15:50:19;10.30;99.90
19803;DHT22;66074;50.764;6.090;2023-11-18T15:52:49;10.30;99.90
19803;DHT22;66074;50.764;6.090;2023-11-18T15:55:32;10.30;99.90
19803;DHT22;66074;50.764;6.090;2023-11-18T15:57:58;10.30;99.90
19803;DHT22;66074;50.764;6.090;2023-11-18T16:00:27;10.30;99.90
19803;DHT22;66074;50.764;6.090;2023-11-18T16:02:57;10.30;99.90
19803;DHT22;66074;50.764;6.090;2023-11-18T16:05:24;10.30;99.90
19803;DHT22;66074;50.764;6.090;2023-11-18T16:07:51;10.30;99.90
19803;DHT22;66074;50.764;6.090;2023-11-18T16:10:18;10.30;99.90
19803;DHT22;66074;50.764;6.090;2023-11-18T16:12:53;10.30;99.90
19803;DHT22;66074;50.764;6.090;2023-11-18T16:15:29;10.30;99.90
19803;DHT22;66074;50.764;6.090;2023-11-18T16:17:56;10.30;99.90
19803;DHT22;66074;50.764;6.090;2023-11-18T16:20:25;10.30;99.90
19803;DHT22;66074;50.764;6.090;2023-11-18T16:22:53;10.30;99.90
19803;DHT22;66074;50.764;6.090;2023-11-18T16:25:20;10.30;99.90
19803;DHT22;66074;50.764;6.090;2023-11-18T16:27:46;10.30;99.90